Terminal Aerodrome Forecast
Issued by NWS

Home | Current Version | Previous Version | Text Only | Print | Product List | Glossary On
Versions: 1 2 3 4 5 6 7 8 9 10 11 12 13 14 15 16 17
000
FTUS44 KBMX 250902 AAA
TAFTOI
TAF AMD
KTOI 250902Z 2509/2606 00000KT P6SM SKC
      TEMPO 2511/2513 4SM BR SKC
     FM251500 28007KT P6SM SKC
     FM260000 21002KT P6SM SKC=

USA.gov is the U.S. government's official web portal to all federal, state and local government web resources and services.